createdAt,value
2022-11-29T00:01:21.030Z,7.60
2022-11-29T00:03:47.674Z,7.60
2022-11-29T00:06:17.070Z,7.60
2022-11-29T00:08:44.314Z,7.60
2022-11-29T00:11:35.691Z,7.50
2022-11-29T00:14:03.005Z,7.60
2022-11-29T00:16:29.922Z,7.60
2022-11-29T00:18:56.803Z,7.60
2022-11-29T00:21:23.564Z,7.60
2022-11-29T00:23:50.395Z,7.60
2022-11-29T00:26:19.776Z,7.60
2022-11-29T00:28:46.416Z,7.60
2022-11-29T00:31:25.123Z,7.60
2022-11-29T00:33:52.505Z,7.60
2022-11-29T00:36:20.367Z,7.60
2022-11-29T00:38:47.102Z,7.60
2022-11-29T00:41:14.166Z,7.60
2022-11-29T00:43:41.134Z,7.60
2022-11-29T00:46:10.414Z,7.70
2022-11-29T00:48:37.494Z,7.70
2022-11-29T00:51:07.233Z,7.60
2022-11-29T00:53:35.281Z,7.70
2022-11-29T00:56:03.289Z,7.70
2022-11-29T00:58:30.386Z,7.70
2022-11-29T01:00:57.474Z,7.70
2022-11-29T01:03:24.737Z,7.70
2022-11-29T01:05:52.150Z,7.70
2022-11-29T01:08:19.009Z,7.70
2022-11-29T01:10:50.568Z,7.70
2022-11-29T01:13:17.203Z,7.70
2022-11-29T01:15:43.960Z,7.70
2022-11-29T01:18:10.638Z,7.70
2022-11-29T01:20:37.307Z,7.70
2022-11-29T01:23:06.240Z,7.70
2022-11-29T01:25:33.072Z,7.80
2022-11-29T01:27:59.829Z,7.80
2022-11-29T01:30:28.835Z,7.80
2022-11-29T01:32:55.564Z,7.80
2022-11-29T01:35:24.738Z,7.80
2022-11-29T01:37:51.341Z,7.80
2022-11-29T01:40:21.495Z,7.80
2022-11-29T01:42:50.255Z,7.80
2022-11-29T01:45:24.476Z,7.80
2022-11-29T01:47:55.205Z,7.80
2022-11-29T01:50:22.239Z,7.80
2022-11-29T01:52:49.347Z,7.80
2022-11-29T01:55:16.482Z,7.80
2022-11-29T01:57:44.028Z,7.80
2022-11-29T02:00:15.741Z,7.80
2022-11-29T02:02:47.024Z,7.80
2022-11-29T02:05:15.471Z,7.80
2022-11-29T02:07:46.284Z,7.90
2022-11-29T02:10:14.272Z,7.90
2022-11-29T02:12:49.923Z,7.90
2022-11-29T02:15:31.797Z,7.90
2022-11-29T02:18:09.221Z,7.90
2022-11-29T02:21:06.413Z,7.90
2022-11-29T02:23:45.424Z,7.90
2022-11-29T02:26:40.322Z,7.90
2022-11-29T02:29:25.040Z,7.90
2022-11-29T02:32:19.392Z,7.90
2022-11-29T02:35:20.244Z,7.90
2022-11-29T02:38:22.592Z,7.90
2022-11-29T02:41:00.334Z,7.90
2022-11-29T02:43:57.758Z,7.90
2022-11-29T02:46:41.992Z,8.00
2022-11-29T02:49:17.536Z,7.90
2022-11-29T02:51:50.762Z,7.90
2022-11-29T02:54:38.448Z,7.90
2022-11-29T02:57:21.546Z,7.90
2022-11-29T03:00:11.063Z,8.00
2022-11-29T03:02:56.902Z,7.90
2022-11-29T03:05:32.425Z,7.90
2022-11-29T03:08:06.945Z,7.90
2022-11-29T03:10:59.032Z,7.90
2022-11-29T03:14:13.157Z,7.90
2022-11-29T03:17:07.120Z,7.90
2022-11-29T03:20:03.679Z,7.90
2022-11-29T03:23:10.799Z,7.90
2022-11-29T03:25:42.375Z,7.90
2022-11-29T03:28:19.933Z,7.90
2022-11-29T03:31:15.429Z,7.90
2022-11-29T03:34:11.706Z,7.90
2022-11-29T03:36:45.562Z,7.90
2022-11-29T03:39:19.511Z,7.90
2022-11-29T03:42:06.286Z,7.90
2022-11-29T03:44:58.892Z,7.90
2022-11-29T03:47:40.307Z,8.00
2022-11-29T03:50:13.502Z,8.00
2022-11-29T03:52:47.856Z,7.90
2022-11-29T03:55:45.127Z,7.90
2022-11-29T03:58:22.138Z,7.90
2022-11-29T04:00:48.751Z,7.90
2022-11-29T04:03:42.660Z,7.90
2022-11-29T04:06:31.373Z,7.90
2022-11-29T04:09:36.795Z,7.90
2022-11-29T04:12:27.898Z,7.90
2022-11-29T04:15:15.472Z,7.90
2022-11-29T04:18:00.192Z,7.90
2022-11-29T04:21:03.747Z,7.90
2022-11-29T04:23:55.743Z,7.90
2022-11-29T04:26:37.192Z,7.90
2022-11-29T04:29:25.128Z,7.90
2022-11-29T04:32:06.069Z,7.90
2022-11-29T04:35:18.880Z,7.90
2022-11-29T04:38:23.402Z,8.00
2022-11-29T04:41:15.447Z,8.00
2022-11-29T04:43:52.299Z,8.00
2022-11-29T04:46:45.156Z,8.00
2022-11-29T04:49:11.776Z,8.00
2022-11-29T04:52:08.610Z,8.00
2022-11-29T04:54:46.102Z,8.00
2022-11-29T04:57:31.926Z,8.00
2022-11-29T05:00:15.227Z,8.00
2022-11-29T05:03:06.658Z,8.00
2022-11-29T05:05:39.334Z,8.00
2022-11-29T05:08:29.985Z,8.00
2022-11-29T05:11:26.361Z,8.00
2022-11-29T05:13:57.266Z,8.00
2022-11-29T05:16:45.992Z,8.00
2022-11-29T05:19:21.517Z,8.00
2022-11-29T05:21:55.236Z,8.00
2022-11-29T05:24:44.966Z,8.00
2022-11-29T05:27:41.088Z,7.90
2022-11-29T05:30:19.424Z,7.90
2022-11-29T05:33:28.932Z,7.90
2022-11-29T05:36:10.231Z,8.00
2022-11-29T05:38:55.504Z,7.90
2022-11-29T05:41:55.845Z,7.90
2022-11-29T05:44:41.939Z,7.90
2022-11-29T05:47:14.911Z,7.90
2022-11-29T05:49:55.368Z,7.90
2022-11-29T05:52:39.421Z,7.90
2022-11-29T05:55:18.226Z,7.90
2022-11-29T05:58:03.928Z,7.90
2022-11-29T06:00:47.562Z,7.90
2022-11-29T06:03:14.169Z,7.80
2022-11-29T06:06:07.111Z,7.90
2022-11-29T06:08:53.537Z,7.80
2022-11-29T06:11:35.378Z,7.80
2022-11-29T06:14:05.812Z,7.80
2022-11-29T06:17:01.948Z,7.90
2022-11-29T06:19:56.198Z,7.90
2022-11-29T06:22:55.755Z,7.80
2022-11-29T06:25:32.909Z,7.80
2022-11-29T06:28:16.580Z,7.80
2022-11-29T06:31:03.327Z,7.80
2022-11-29T06:33:42.159Z,7.80
2022-11-29T06:36:25.372Z,7.80
2022-11-29T06:38:52.142Z,7.80
2022-11-29T06:41:24.084Z,7.90
2022-11-29T06:43:53.189Z,7.90
2022-11-29T06:46:51.646Z,7.90
2022-11-29T06:49:32.303Z,7.90
2022-11-29T06:52:23.083Z,7.90
2022-11-29T06:55:14.507Z,7.90
2022-11-29T06:58:21.215Z,7.90
2022-11-29T07:00:59.188Z,7.90
2022-11-29T07:03:46.784Z,7.90
2022-11-29T07:06:24.115Z,7.90
2022-11-29T07:09:08.763Z,7.90
2022-11-29T07:11:36.020Z,7.90
2022-11-29T07:14:05.392Z,7.90
2022-11-29T07:16:42.094Z,7.90
2022-11-29T07:19:40.340Z,7.90
2022-11-29T07:22:43.710Z,7.90
2022-11-29T07:25:39.053Z,7.90
2022-11-29T07:28:23.072Z,8.00
2022-11-29T07:31:10.935Z,7.90
2022-11-29T07:34:04.591Z,7.90
2022-11-29T07:36:51.913Z,7.90
2022-11-29T07:39:31.289Z,7.90
2022-11-29T07:42:05.423Z,7.90
2022-11-29T07:44:50.865Z,7.90
2022-11-29T07:47:17.620Z,7.90
2022-11-29T07:49:44.256Z,7.90
2022-11-29T07:52:17.596Z,7.90
2022-11-29T07:54:44.554Z,7.90
2022-11-29T07:57:11.296Z,7.90
2022-11-29T07:59:37.989Z,7.90
2022-11-29T08:02:08.840Z,7.90
2022-11-29T08:04:46.605Z,7.90
2022-11-29T08:07:13.489Z,7.90
2022-11-29T08:09:40.139Z,8.00
2022-11-29T08:12:06.957Z,7.90
2022-11-29T08:14:36.034Z,8.00
2022-11-29T08:17:04.951Z,8.00
2022-11-29T08:19:31.717Z,8.00
2022-11-29T08:21:58.329Z,8.10
2022-11-29T08:24:26.259Z,8.10
2022-11-29T08:26:53.119Z,8.10
2022-11-29T08:29:20.032Z,8.20
2022-11-29T08:31:53.020Z,8.20
2022-11-29T08:34:23.104Z,8.20
2022-11-29T08:36:50.541Z,8.30
2022-11-29T08:39:17.768Z,8.30
2022-11-29T08:41:44.428Z,8.30
2022-11-29T08:44:11.074Z,8.40
2022-11-29T08:46:56.619Z,8.40
2022-11-29T08:49:23.254Z,8.50
2022-11-29T08:51:52.502Z,8.50
2022-11-29T08:54:19.133Z,8.60
2022-11-29T08:59:32.579Z,8.60
2022-11-29T09:01:59.317Z,8.60
2022-11-29T09:04:26.047Z,8.70
2022-11-29T09:06:52.770Z,8.70
2022-11-29T09:09:19.476Z,8.70
2022-11-29T09:11:49.379Z,8.70
2022-11-29T09:14:17.690Z,8.70
2022-11-29T09:16:44.491Z,8.80
2022-11-29T09:19:14.192Z,8.80
2022-11-29T09:21:40.902Z,8.80
2022-11-29T09:24:09.256Z,8.90
2022-11-29T09:26:40.749Z,8.90
2022-11-29T09:29:10.273Z,9.00
2022-11-29T09:31:37.993Z,9.00
2022-11-29T09:34:04.715Z,9.00
2022-11-29T09:36:31.735Z,9.10
2022-11-29T09:39:00.593Z,9.10
2022-11-29T09:41:49.022Z,9.10
2022-11-29T09:44:31.849Z,9.20
2022-11-29T09:47:15.933Z,9.20
2022-11-29T09:50:33.993Z,9.30
2022-11-29T09:53:19.165Z,9.40
2022-11-29T09:55:50.531Z,9.50
2022-11-29T09:58:21.457Z,9.50
2022-11-29T10:00:56.349Z,9.50
2022-11-29T10:03:33.990Z,9.50
2022-11-29T10:06:08.647Z,9.60
2022-11-29T10:08:43.018Z,9.60
2022-11-29T10:11:37.528Z,9.60
2022-11-29T10:14:16.267Z,9.60
2022-11-29T10:16:52.344Z,9.70
2022-11-29T10:19:35.449Z,9.70
2022-11-29T10:22:36.239Z,9.80
2022-11-29T10:25:06.833Z,9.80
2022-11-29T10:27:35.427Z,9.90
2022-11-29T10:30:02.678Z,9.90
2022-11-29T10:32:32.013Z,9.90
2022-11-29T10:35:00.773Z,10.00
2022-11-29T10:37:32.559Z,10.00
2022-11-29T10:40:09.667Z,10.10
2022-11-29T10:42:49.949Z,10.10
2022-11-29T10:45:41.064Z,10.20
2022-11-29T10:48:19.151Z,10.20
2022-11-29T10:50:51.657Z,10.20
2022-11-29T10:53:32.928Z,10.20
2022-11-29T10:56:20.317Z,10.20
2022-11-29T10:59:06.146Z,10.20
2022-11-29T11:01:38.680Z,10.20
2022-11-29T11:04:09.823Z,10.30
2022-11-29T11:06:44.814Z,10.20
2022-11-29T11:09:34.360Z,10.20
2022-11-29T11:12:08.580Z,10.20
2022-11-29T11:14:38.688Z,10.10
2022-11-29T11:17:21.140Z,10.10
2022-11-29T11:20:08.239Z,10.10
2022-11-29T11:22:36.151Z,10.10
2022-11-29T11:25:39.462Z,10.00
2022-11-29T11:28:25.372Z,10.10
2022-11-29T11:30:54.025Z,10.10
2022-11-29T11:33:29.068Z,10.20
2022-11-29T11:36:14.788Z,10.20
2022-11-29T11:38:56.637Z,10.20
2022-11-29T11:41:53.996Z,10.20
2022-11-29T11:44:46.461Z,10.20
2022-11-29T11:47:24.333Z,10.20
2022-11-29T11:50:06.741Z,10.10
2022-11-29T11:52:41.256Z,10.10
2022-11-29T11:55:35.017Z,10.00
2022-11-29T11:58:16.240Z,10.10
2022-11-29T12:01:04.095Z,10.10
2022-11-29T12:03:46.616Z,10.10
2022-11-29T12:06:49.925Z,10.00
2022-11-29T12:09:38.216Z,10.00
2022-11-29T12:12:19.669Z,10.10
2022-11-29T12:15:02.239Z,10.10
2022-11-29T12:17:38.322Z,10.10
2022-11-29T12:20:31.370Z,10.10
2022-11-29T12:23:13.329Z,10.10
2022-11-29T12:25:55.187Z,10.10
2022-11-29T12:28:26.542Z,10.10
2022-11-29T12:31:07.655Z,10.10
2022-11-29T12:34:04.743Z,10.10
2022-11-29T12:36:45.455Z,10.10
2022-11-29T12:39:31.156Z,10.10
2022-11-29T12:42:10.756Z,10.10
2022-11-29T12:45:06.817Z,10.10
2022-11-29T12:47:59.642Z,10.10
2022-11-29T12:50:44.685Z,10.00
2022-11-29T12:53:47.559Z,10.00
2022-11-29T12:56:38.531Z,10.00
2022-11-29T12:59:49.299Z,10.00
2022-11-29T13:02:37.884Z,10.00
2022-11-29T13:05:29.815Z,10.00
2022-11-29T13:08:06.662Z,10.00
2022-11-29T13:11:02.009Z,10.00
2022-11-29T13:13:37.659Z,9.90
2022-11-29T13:16:31.141Z,9.90
2022-11-29T13:19:19.650Z,9.90
2022-11-29T13:21:50.795Z,9.80
2022-11-29T13:24:25.565Z,9.80
2022-11-29T13:26:53.368Z,9.80
2022-11-29T13:29:20.817Z,9.80
2022-11-29T13:31:50.049Z,9.70
2022-11-29T13:34:30.324Z,9.70
2022-11-29T13:37:17.486Z,9.70
2022-11-29T13:40:04.680Z,9.70
2022-11-29T13:42:37.052Z,9.70
2022-11-29T13:45:22.498Z,9.70
2022-11-29T13:47:54.951Z,9.60
2022-11-29T13:50:40.595Z,9.60
2022-11-29T13:53:26.204Z,9.60
2022-11-29T13:56:01.847Z,9.60
2022-11-29T13:58:28.583Z,9.60
2022-11-29T14:01:04.401Z,9.60
2022-11-29T14:04:07.629Z,9.60
2022-11-29T14:06:39.069Z,9.60
2022-11-29T14:09:32.983Z,9.60
2022-11-29T14:12:35.760Z,9.60
2022-11-29T14:15:24.872Z,9.60
2022-11-29T14:18:01.321Z,9.60
2022-11-29T14:20:56.572Z,9.60
2022-11-29T14:23:38.413Z,9.50
2022-11-29T14:26:10.771Z,9.50
2022-11-29T14:28:39.225Z,9.50
2022-11-29T14:31:10.426Z,9.50
2022-11-29T14:34:05.867Z,9.50
2022-11-29T14:36:48.020Z,9.50
2022-11-29T14:39:44.719Z,9.50
2022-11-29T14:42:29.482Z,9.50
2022-11-29T14:45:00.703Z,9.50
2022-11-29T14:47:47.021Z,9.50
2022-11-29T14:50:33.679Z,9.50
2022-11-29T14:53:01.133Z,9.40
2022-11-29T14:55:32.796Z,9.40
2022-11-29T14:58:17.169Z,9.40
2022-11-29T15:01:01.817Z,9.40
2022-11-29T15:03:34.272Z,9.40
2022-11-29T15:06:13.076Z,9.50
2022-11-29T15:09:05.082Z,9.50
2022-11-29T15:11:51.872Z,9.50
2022-11-29T15:14:43.732Z,9.50
2022-11-29T15:17:10.709Z,9.50
2022-11-29T15:20:16.700Z,9.40
2022-11-29T15:22:51.513Z,9.40
2022-11-29T15:25:21.498Z,9.40
2022-11-29T15:27:56.602Z,9.40
2022-11-29T15:30:36.395Z,9.50
2022-11-29T15:33:23.322Z,9.40
2022-11-29T15:35:53.484Z,9.40
2022-11-29T15:38:22.118Z,9.40
2022-11-29T15:40:55.299Z,9.40
2022-11-29T15:43:33.200Z,9.40
2022-11-29T15:46:00.219Z,9.40
2022-11-29T15:48:34.195Z,9.40
2022-11-29T15:51:00.820Z,9.40
2022-11-29T15:53:31.640Z,9.40
2022-11-29T15:56:00.345Z,9.40
2022-11-29T15:58:32.397Z,9.40
2022-11-29T16:01:01.886Z,9.40
2022-11-29T16:03:31.884Z,9.40
2022-11-29T16:06:25.165Z,9.40
2022-11-29T16:08:53.192Z,9.40
2022-11-29T16:11:23.410Z,9.30
2022-11-29T16:14:15.081Z,9.30
2022-11-29T16:16:45.301Z,9.30
2022-11-29T16:19:33.800Z,9.30
2022-11-29T16:22:12.436Z,9.30
2022-11-29T16:25:01.392Z,9.30
2022-11-29T16:27:35.010Z,9.30
2022-11-29T16:30:02.374Z,9.30
2022-11-29T16:32:42.215Z,9.30
2022-11-29T16:35:24.292Z,9.30
2022-11-29T16:37:51.163Z,9.30
2022-11-29T16:40:23.717Z,9.30
2022-11-29T16:43:23.211Z,9.30
2022-11-29T16:46:21.930Z,9.30
2022-11-29T16:48:52.819Z,9.30
2022-11-29T16:51:30.628Z,9.30
2022-11-29T16:54:24.544Z,9.30
2022-11-29T16:56:53.132Z,9.30
2022-11-29T16:59:27.290Z,9.30
2022-11-29T17:01:57.794Z,9.30
2022-11-29T17:04:25.559Z,9.30
2022-11-29T17:06:56.816Z,9.20
2022-11-29T17:09:29.440Z,9.20
2022-11-29T17:12:02.119Z,9.20
2022-11-29T17:14:29.738Z,9.20
2022-11-29T17:17:03.869Z,9.20
2022-11-29T17:19:30.870Z,9.20
2022-11-29T17:22:00.404Z,9.20
2022-11-29T17:24:29.669Z,9.20
2022-11-29T17:26:56.357Z,9.20
2022-11-29T17:29:25.195Z,9.20
2022-11-29T17:31:55.515Z,9.20
2022-11-29T17:34:22.293Z,9.10
2022-11-29T17:36:51.719Z,9.10
2022-11-29T17:39:21.551Z,9.20
2022-11-29T17:41:52.880Z,9.10
2022-11-29T17:44:19.561Z,9.20
2022-11-29T17:46:46.222Z,9.20
2022-11-29T17:49:12.941Z,9.10
2022-11-29T17:51:51.854Z,9.10
2022-11-29T17:54:21.959Z,9.10
2022-11-29T17:56:49.453Z,9.10
2022-11-29T17:59:21.418Z,9.10
2022-11-29T18:01:48.268Z,9.10
2022-11-29T18:04:15.339Z,9.10
2022-11-29T18:06:42.651Z,9.10
2022-11-29T18:09:10.759Z,9.10
2022-11-29T18:11:48.086Z,9.10
2022-11-29T18:14:23.414Z,9.10
2022-11-29T18:16:51.320Z,9.10
2022-11-29T18:19:20.657Z,9.10
2022-11-29T18:21:49.005Z,9.10
2022-11-29T18:24:15.931Z,9.10
2022-11-29T18:26:43.007Z,9.10
2022-11-29T18:29:09.802Z,9.10
2022-11-29T18:31:39.434Z,9.10
2022-11-29T18:34:09.503Z,9.10
2022-11-29T18:36:44.598Z,9.10
2022-11-29T18:39:16.543Z,9.10
2022-11-29T18:41:47.233Z,9.10
2022-11-29T18:44:15.578Z,9.10
2022-11-29T18:46:44.003Z,9.10
2022-11-29T18:49:17.106Z,9.10
2022-11-29T18:51:45.556Z,9.10
2022-11-29T18:54:14.026Z,9.10
2022-11-29T18:56:41.526Z,9.10
2022-11-29T18:59:14.706Z,9.10
2022-11-29T19:01:45.172Z,9.10
2022-11-29T19:04:14.731Z,9.00
2022-11-29T19:06:42.298Z,9.00
2022-11-29T19:09:19.212Z,9.00
2022-11-29T19:11:46.086Z,9.10
2022-11-29T19:14:15.154Z,9.00
2022-11-29T19:16:45.352Z,9.00
2022-11-29T19:19:12.790Z,9.00
2022-11-29T19:21:42.344Z,9.00
2022-11-29T19:24:15.238Z,9.00
2022-11-29T19:26:44.383Z,9.00
2022-11-29T19:29:12.017Z,8.90
2022-11-29T19:31:39.398Z,8.90
2022-11-29T19:34:08.934Z,8.90
2022-11-29T19:36:42.820Z,8.90
2022-11-29T19:39:11.258Z,8.90
2022-11-29T19:41:38.106Z,8.90
2022-11-29T19:44:07.884Z,8.90
2022-11-29T19:46:41.034Z,8.90
2022-11-29T19:49:11.278Z,8.90
2022-11-29T19:51:38.493Z,8.80
2022-11-29T19:54:07.595Z,8.90
2022-11-29T19:56:34.503Z,8.80
2022-11-29T19:59:01.258Z,8.80
2022-11-29T20:01:37.828Z,8.80
2022-11-29T20:04:10.252Z,8.80
2022-11-29T20:06:37.210Z,8.80
2022-11-29T20:09:09.001Z,8.80
2022-11-29T20:11:35.818Z,8.80
2022-11-29T20:14:04.776Z,8.80
2022-11-29T20:16:32.377Z,8.80
2022-11-29T20:19:00.105Z,8.80
2022-11-29T20:21:31.898Z,8.80
2022-11-29T20:24:05.216Z,8.80
2022-11-29T20:26:34.645Z,8.80
2022-11-29T20:29:04.220Z,8.80
2022-11-29T20:31:35.492Z,8.80
2022-11-29T20:34:02.851Z,8.80
2022-11-29T20:36:59.737Z,8.80
2022-11-29T20:39:59.433Z,8.80
2022-11-29T20:42:29.296Z,8.80
2022-11-29T20:44:58.609Z,8.80
2022-11-29T20:47:40.280Z,8.80
2022-11-29T20:50:07.767Z,8.80
2022-11-29T20:52:53.311Z,8.80
2022-11-29T20:55:20.672Z,8.80
2022-11-29T20:57:47.349Z,8.80
2022-11-29T21:00:18.056Z,8.80
2022-11-29T21:02:44.686Z,8.70
2022-11-29T21:05:15.241Z,8.70
2022-11-29T21:07:42.562Z,8.70
2022-11-29T21:10:09.624Z,8.70
2022-11-29T21:12:36.561Z,8.70
2022-11-29T21:15:03.680Z,8.70
2022-11-29T21:17:33.676Z,8.70
2022-11-29T21:20:04.103Z,8.70
2022-11-29T21:22:43.047Z,8.70
2022-11-29T21:25:30.003Z,8.70
2022-11-29T21:27:57.032Z,8.60
2022-11-29T21:30:24.940Z,8.60
2022-11-29T21:32:52.369Z,8.60
2022-11-29T21:35:19.169Z,8.50
2022-11-29T21:37:46.263Z,8.50
2022-11-29T21:40:14.149Z,8.40
2022-11-29T21:42:41.066Z,8.40
2022-11-29T21:45:14.811Z,8.40
2022-11-29T21:47:43.898Z,8.40
2022-11-29T21:50:14.542Z,8.30
2022-11-29T21:52:41.550Z,8.40
2022-11-29T21:55:08.728Z,8.30
2022-11-29T21:57:35.627Z,8.30
2022-11-29T22:00:05.175Z,8.30
2022-11-29T22:02:32.060Z,8.30
2022-11-29T22:04:58.784Z,8.30
2022-11-29T22:07:25.648Z,8.30
2022-11-29T22:09:52.433Z,8.20
2022-11-29T22:12:33.806Z,8.20
2022-11-29T22:15:01.487Z,8.20
2022-11-29T22:17:30.450Z,8.20
2022-11-29T22:19:57.121Z,8.20
2022-11-29T22:22:27.176Z,8.20
2022-11-29T22:24:54.801Z,8.20
2022-11-29T22:27:21.416Z,8.20
2022-11-29T22:29:48.366Z,8.20
2022-11-29T22:32:14.987Z,8.20
2022-11-29T22:34:41.583Z,8.20
2022-11-29T22:37:10.516Z,8.20
2022-11-29T22:39:37.095Z,8.10
2022-11-29T22:42:03.828Z,8.10
2022-11-29T22:44:31.283Z,8.00
2022-11-29T22:46:58.000Z,8.00
2022-11-29T22:49:24.778Z,8.00
2022-11-29T22:51:52.259Z,7.90
2022-11-29T22:54:21.248Z,7.90
2022-11-29T22:56:47.926Z,7.90
2022-11-29T22:59:14.662Z,7.80
2022-11-29T23:01:42.356Z,7.80
2022-11-29T23:04:13.936Z,7.70
2022-11-29T23:06:42.972Z,7.70
2022-11-29T23:09:21.011Z,7.70
2022-11-29T23:11:53.519Z,7.70
2022-11-29T23:14:20.924Z,7.70
2022-11-29T23:16:47.987Z,7.70
2022-11-29T23:19:14.904Z,7.70
2022-11-29T23:21:41.814Z,7.70
2022-11-29T23:24:08.671Z,7.70
2022-11-29T23:26:41.050Z,7.70
2022-11-29T23:29:10.346Z,7.70
2022-11-29T23:31:39.660Z,7.70
2022-11-29T23:34:06.656Z,7.70
2022-11-29T23:36:33.316Z,7.60
2022-11-29T23:39:02.592Z,7.60
2022-11-29T23:41:29.257Z,7.60
2022-11-29T23:43:56.172Z,7.60
2022-11-29T23:46:24.567Z,7.60
2022-11-29T23:48:51.793Z,7.60
2022-11-29T23:51:19.329Z,7.60
2022-11-29T23:53:48.928Z,7.60
2022-11-29T23:56:17.781Z,7.60
2022-11-29T23:58:45.030Z,7.60
